Lavaca Bay — WDF2105 — position and weather

sailwx.info

Track history (hours):
 
Tides and Currents Weather Stations Pressure Air Temp Water Temp Dewpoint Dewpoint Depression Visibility Wind Speed Wind Dir Waves Ship Positions

Lavaca Bay

More information available from US FCC via Universal Licensing System and Coast Guard Vessel Documentation Center.

Last reported at 2014-Sep-10 11:24 UTC. Time now 2014-Sep-17 19:42 UTC.
Position N 30°19' W 091°09'.

Length 24 m; draft 3 m.

Type: Towing. MMSI: 367424940.

Date/timePositionNaut miles runAvg speedWind from/ knotsBaromVisibWave heightAir tempDewpointWater temp
2014-Sep-10 11:24N 30°19' W 091°09'8 2.6
2014-Sep-10 08:16N 30°11' W 091°08'7 3.8
2014-Sep-10 06:21N 30°07' W 091°01'5 5.1
2014-Sep-10 05:27N 30°08' W 090°56'5 5.8
2014-Sep-10 04:33N 30°04' W 090°52'5 5.4
2014-Sep-10 03:34N 29°59' W 090°48'6 6.1
2014-Sep-10 02:33N 30°02' W 090°42'5 5.3
2014-Sep-10 01:33N 30°03' W 090°36'6 6.3
2014-Sep-10 00:33N 30°03' W 090°29'5 5.2
2014-Sep-09 23:33N 29°59' W 090°24'0 0.0
2014-Sep-09 22:33N 29°59' W 090°24'5 0.4
2014-Sep-09 10:05N 29°56' W 090°19'1 0.1
2014-Sep-08 23:33N 29°56' W 090°20'4 3.8
2014-Sep-08 22:33N 29°58' W 090°24'0 0.0
2014-Sep-08 10:32N 29°58' W 090°24'0 0.0
2014-Sep-08 09:32N 29°58' W 090°24'0 0.0
2014-Sep-08 08:29N 29°58' W 090°24'0 0.0
2014-Sep-08 07:12N 29°58' W 090°24'0 0.0
2014-Sep-08 06:31N 29°58' W 090°24'0 0.0
2014-Sep-08 05:21N 29°58' W 090°24'0 0.0
2014-Sep-08 04:28N 29°58' W 090°24'0 0.0
2014-Sep-08 03:34N 29°58' W 090°24'0 0.0
2014-Sep-08 02:31N 29°58' W 090°24'0 0.0
2014-Sep-08 01:32N 29°58' W 090°24'1 1.3
2014-Sep-08 00:33N 29°59' W 090°24'1 1.2
2014-Sep-07 23:24N 29°58' W 090°24'1 1.6
2014-Sep-07 22:33N 29°59' W 090°24'0 0.0
2014-Sep-07 21:33N 29°59' W 090°24'0 0.0
2014-Sep-07 20:33N 29°59' W 090°24'0 0.0
2014-Sep-07 19:30N 29°59' W 090°24'1 1.3
2014-Sep-07 18:33N 29°58' W 090°24'0 0.0
2014-Sep-07 14:14N 29°58' W 090°24'0 0.0
2014-Sep-07 12:31N 29°58' W 090°24'0 0.0
2014-Sep-07 11:32N 29°58' W 090°24'0 0.0
2014-Sep-07 10:33N 29°58' W 090°24'0 0.0
2014-Sep-07 09:33N 29°58' W 090°24'0 0.0
2014-Sep-07 08:32N 29°58' W 090°24'0 0.0
2014-Sep-07 07:33N 29°58' W 090°24'0 0.0
2014-Sep-07 06:33N 29°58' W 090°24'5 4.9
2014-Sep-07 05:33N 30°01' W 090°28'6 6.0
2014-Sep-07 04:34N 30°03' W 090°35'6 6.4
2014-Sep-07 03:33N 30°02' W 090°42'7 6.8
2014-Sep-07 02:33N 29°59' W 090°49'7 6.4
2014-Sep-07 01:32N 30°04' W 090°54'  
Track history (hours):
 
Tides and Currents Weather Stations Pressure Air Temp Water Temp Dewpoint Dewpoint Depression Visibility Wind Speed Wind Dir Waves Ship Positions

Lavaca Bay

More information available from US FCC via Universal Licensing System and Coast Guard Vessel Documentation Center.

Last reported at 2014-Sep-10 11:24 UTC. Time now 2014-Sep-17 19:42 UTC.
Position N 30°19' W 091°09'.

Length 24 m; draft 3 m.

Type: Towing. MMSI: 367424940.

Date/timePositionNaut miles runAvg speedWind from/ knotsBaromVisibWave heightAir tempDewpointWater temp
2014-Sep-10 11:24N 30°19' W 091°09'8 2.6
2014-Sep-10 08:16N 30°11' W 091°08'7 3.8
2014-Sep-10 06:21N 30°07' W 091°01'5 5.1
2014-Sep-10 05:27N 30°08' W 090°56'5 5.8
2014-Sep-10 04:33N 30°04' W 090°52'5 5.4
2014-Sep-10 03:34N 29°59' W 090°48'6 6.1
2014-Sep-10 02:33N 30°02' W 090°42'5 5.3
2014-Sep-10 01:33N 30°03' W 090°36'6 6.3
2014-Sep-10 00:33N 30°03' W 090°29'5 5.2
2014-Sep-09 23:33N 29°59' W 090°24'0 0.0
2014-Sep-09 22:33N 29°59' W 090°24'5 0.4
2014-Sep-09 10:05N 29°56' W 090°19'1 0.1
2014-Sep-08 23:33N 29°56' W 090°20'4 3.8
2014-Sep-08 22:33N 29°58' W 090°24'0 0.0
2014-Sep-08 10:32N 29°58' W 090°24'0 0.0
2014-Sep-08 09:32N 29°58' W 090°24'0 0.0
2014-Sep-08 08:29N 29°58' W 090°24'0 0.0
2014-Sep-08 07:12N 29°58' W 090°24'0 0.0
2014-Sep-08 06:31N 29°58' W 090°24'0 0.0
2014-Sep-08 05:21N 29°58' W 090°24'0 0.0
2014-Sep-08 04:28N 29°58' W 090°24'0 0.0
2014-Sep-08 03:34N 29°58' W 090°24'0 0.0
2014-Sep-08 02:31N 29°58' W 090°24'0 0.0
2014-Sep-08 01:32N 29°58' W 090°24'1 1.3
2014-Sep-08 00:33N 29°59' W 090°24'1 1.2
2014-Sep-07 23:24N 29°58' W 090°24'1 1.6
2014-Sep-07 22:33N 29°59' W 090°24'0 0.0
2014-Sep-07 21:33N 29°59' W 090°24'0 0.0
2014-Sep-07 20:33N 29°59' W 090°24'0 0.0
2014-Sep-07 19:30N 29°59' W 090°24'1 1.3
2014-Sep-07 18:33N 29°58' W 090°24'0 0.0
2014-Sep-07 14:14N 29°58' W 090°24'0 0.0
2014-Sep-07 12:31N 29°58' W 090°24'0 0.0
2014-Sep-07 11:32N 29°58' W 090°24'0 0.0
2014-Sep-07 10:33N 29°58' W 090°24'0 0.0
2014-Sep-07 09:33N 29°58' W 090°24'0 0.0
2014-Sep-07 08:32N 29°58' W 090°24'0 0.0
2014-Sep-07 07:33N 29°58' W 090°24'0 0.0
2014-Sep-07 06:33N 29°58' W 090°24'5 4.9
2014-Sep-07 05:33N 30°01' W 090°28'6 6.0
2014-Sep-07 04:34N 30°03' W 090°35'6 6.4
2014-Sep-07 03:33N 30°02' W 090°42'7 6.8
2014-Sep-07 02:33N 29°59' W 090°49'7 6.4
2014-Sep-07 01:32N 30°04' W 090°54'  

Dump ship's entire track history